Aviation Digital Data Service (ADDS)

Output produced by METARs form (0008 UTC 16 February 2019)
found at http://www.aviationweather.gov/metar/data/
 
METAR text: BIRK 160000Z 15002KT CAVOK M02/M03 Q1006
Conditions at: BIRK (REYKJAVIK (NOTAM, IS) observed 0000 UTC 16 February 2019
Temperature: -2.0°C (28°F)
Dewpoint: -3.0°C (27°F) [RH = 93%]
Pressure (altimeter): 29.70 inches Hg (1006.0 mb)
Winds: from the SSE (150 degrees) at 2 MPH (2 knots; 1.0 m/s)
Visibility: 6 or more miles (10+ km)
Ceiling: ceiling and visibility are OK
Clouds: unknown
Weather: no significant weather observed at this time

METAR text: BIRK 152300Z 32003KT CAVOK M01/M03 Q1005 R19/920144
Conditions at: BIRK (REYKJAVIK (NOTAM, IS) observed 2300 UTC 15 February 2019
Temperature: -1.0°C (30°F)
Dewpoint: -3.0°C (27°F) [RH = 86%]
Pressure (altimeter): 29.68 inches Hg (1005.0 mb)
Winds: from the NW (320 degrees) at 3 MPH (3 knots; 1.5 m/s)
Visibility: 6 or more miles (10+ km)
Ceiling: ceiling and visibility are OK
Clouds: unknown
Weather: no significant weather observed at this time

METAR text: BIRK 152200Z 31007KT CAVOK M01/M02 Q1004 R19/920144
Conditions at: BIRK (REYKJAVIK (NOTAM, IS) observed 2200 UTC 15 February 2019
Temperature: -1.0°C (30°F)
Dewpoint: -2.0°C (28°F) [RH = 93%]
Pressure (altimeter): 29.65 inches Hg (1004.0 mb)
Winds: from the NW (310 degrees) at 8 MPH (7 knots; 3.6 m/s)
Visibility: 6 or more miles (10+ km)
Ceiling: ceiling and visibility are OK
Clouds: unknown
Weather: no significant weather observed at this time

METAR text: BIRK 152100Z 31007KT CAVOK M00/M02 Q1004 R19/920144
Conditions at: BIRK (REYKJAVIK (NOTAM, IS) observed 2100 UTC 15 February 2019
Temperature: 0.0°C (32°F)
Dewpoint: -2.0°C (28°F) [RH = 86%]
Pressure (altimeter): 29.65 inches Hg (1004.0 mb)
Winds: from the NW (310 degrees) at 8 MPH (7 knots; 3.6 m/s)
Visibility: 6 or more miles (10+ km)
Ceiling: ceiling and visibility are OK
Clouds: unknown
Weather: no significant weather observed at this time

METAR text: BIRK 152000Z 30007KT 9999 FEW012 00/M02 Q1003 R19/920144
Conditions at: BIRK (REYKJAVIK (NOTAM, IS) observed 2000 UTC 15 February 2019
Temperature: 0.0°C (32°F)
Dewpoint: -2.0°C (28°F) [RH = 86%]
Pressure (altimeter): 29.62 inches Hg (1003.0 mb)
Winds: from the WNW (300 degrees) at 8 MPH (7 knots; 3.6 m/s)
Visibility: 6 or more miles (10+ km)
Ceiling: at least 12,000 feet AGL
Clouds: few clouds at 1200 feet AGL
Weather: no significant weather observed at this time

METAR text: BIRK 151900Z 30012KT 9999 VCSH FEW016 BKN031 01/M01 Q1002 R19/920144
Conditions at: BIRK (REYKJAVIK (NOTAM, IS) observed 1900 UTC 15 February 2019
Temperature: 1.0°C (34°F)
Dewpoint: -1.0°C (30°F) [RH = 86%]
Pressure (altimeter): 29.59 inches Hg (1002.0 mb)
Winds: from the WNW (300 degrees) at 14 MPH (12 knots; 6.2 m/s)
Visibility: 6 or more miles (10+ km)
Ceiling: 3100 feet AGL
Clouds: few clouds at 1600 feet AGL
broken clouds at 3100 feet AGL
Weather: VCSH  (showers in vicinity)

METAR text: BIRK 151800Z 19010KT 9999 VCSH FEW021 BKN033 00/M02 Q1001 R19/920144
Conditions at: BIRK (REYKJAVIK (NOTAM, IS) observed 1800 UTC 15 February 2019
Temperature: 0.0°C (32°F)
Dewpoint: -2.0°C (28°F) [RH = 86%]
Pressure (altimeter): 29.56 inches Hg (1001.0 mb)
Winds: from the S (190 degrees) at 12 MPH (10 knots; 5.1 m/s)
Visibility: 6 or more miles (10+ km)
Ceiling: 3300 feet AGL
Clouds: few clouds at 2100 feet AGL
broken clouds at 3300 feet AGL
Weather: VCSH  (showers in vicinity)

METAR text: BIRK 151700Z 21008KT 9999 FEW025 BKN036 01/M01 Q1001 R19/920144
Conditions at: BIRK (REYKJAVIK (NOTAM, IS) observed 1700 UTC 15 February 2019
Temperature: 1.0°C (34°F)
Dewpoint: -1.0°C (30°F) [RH = 86%]
Pressure (altimeter): 29.56 inches Hg (1001.0 mb)
Winds: from the SSW (210 degrees) at 9 MPH (8 knots; 4.1 m/s)
Visibility: 6 or more miles (10+ km)
Ceiling: 3600 feet AGL
Clouds: few clouds at 2500 feet AGL
broken clouds at 3600 feet AGL
Weather: no significant weather observed at this time

METAR text: BIRK 151600Z 20007KT 9999 FEW022 SCT035 00/M03 Q1000 R19/920144
Conditions at: BIRK (REYKJAVIK (NOTAM, IS) observed 1600 UTC 15 February 2019
Temperature: 0.0°C (32°F)
Dewpoint: -3.0°C (27°F) [RH = 80%]
Pressure (altimeter): 29.53 inches Hg (1000.0 mb)
Winds: from the SSW (200 degrees) at 8 MPH (7 knots; 3.6 m/s)
Visibility: 6 or more miles (10+ km)
Ceiling: at least 12,000 feet AGL
Clouds: few clouds at 2200 feet AGL
scattered clouds at 3500 feet AGL
Weather: no significant weather observed at this time

METAR text: BIRK 151500Z 16005KT 9999 VCSH FEW021CB BKN035 00/M02 Q1000 R19/920144
Conditions at: BIRK (REYKJAVIK (NOTAM, IS) observed 1500 UTC 15 February 2019
Temperature: 0.0°C (32°F)
Dewpoint: -2.0°C (28°F) [RH = 86%]
Pressure (altimeter): 29.53 inches Hg (1000.0 mb)
Winds: from the SSE (160 degrees) at 6 MPH (5 knots; 2.6 m/s)
Visibility: 6 or more miles (10+ km)
Ceiling: 3500 feet AGL
Clouds: few clouds at 2100 feet AGL
broken clouds at 3500 feet AGL
Weather: VCSH  (showers in vicinity)

METAR text: BIRK 151400Z 17005KT 9999 -SHSN FEW010 SCT029CB BKN040 M01/M03 Q1000 R19/920144
Conditions at: BIRK (REYKJAVIK (NOTAM, IS) observed 1400 UTC 15 February 2019
Temperature: -1.0°C (30°F)
Dewpoint: -3.0°C (27°F) [RH = 86%]
Pressure (altimeter): 29.53 inches Hg (1000.0 mb)
Winds: from the S (170 degrees) at 6 MPH (5 knots; 2.6 m/s)
Visibility: 6 or more miles (10+ km)
Ceiling: 4000 feet AGL
Clouds: few clouds at 1000 feet AGL
scattered clouds at 2900 feet AGL
broken clouds at 4000 feet AGL
Weather: -SHSN  (light snow showers)

METAR text: BIRK 151300Z 13004KT 9999 FEW027 M01/M03 Q1000 R19/920144
Conditions at: BIRK (REYKJAVIK (NOTAM, IS) observed 1300 UTC 15 February 2019
Temperature: -1.0°C (30°F)
Dewpoint: -3.0°C (27°F) [RH = 86%]
Pressure (altimeter): 29.53 inches Hg (1000.0 mb)
Winds: from the SE (130 degrees) at 5 MPH (4 knots; 2.1 m/s)
Visibility: 6 or more miles (10+ km)
Ceiling: at least 12,000 feet AGL
Clouds: few clouds at 2700 feet AGL
Weather: no significant weather observed at this time

METAR text: BIRK 151200Z 11003KT 090V170 9999 VCSH FEW008 SCT027CB BKN036 M00/M02 Q1000 R19/920144
Conditions at: BIRK (REYKJAVIK (NOTAM, IS) observed 1200 UTC 15 February 2019
Temperature: 0.0°C (32°F)
Dewpoint: -2.0°C (28°F) [RH = 86%]
Pressure (altimeter): 29.53 inches Hg (1000.0 mb)
Winds: from the ESE (110 degrees) at 3 MPH (3 knots; 1.5 m/s)
Visibility: 6 or more miles (10+ km)
Ceiling: 3600 feet AGL
Clouds: few clouds at 800 feet AGL
scattered clouds at 2700 feet AGL
broken clouds at 3600 feet AGL
Weather: VCSH  (showers in vicinity)

METAR text: BIRK 151100Z 11004KT 9999 VCSH FEW017CB M02/M03 Q0999 R19/920144
Conditions at: BIRK (REYKJAVIK (NOTAM, IS) observed 1100 UTC 15 February 2019
Temperature: -2.0°C (28°F)
Dewpoint: -3.0°C (27°F) [RH = 93%]
Pressure (altimeter): 29.50 inches Hg (999.0 mb)
Winds: from the ESE (110 degrees) at 5 MPH (4 knots; 2.1 m/s)
Visibility: 6 or more miles (10+ km)
Ceiling: at least 12,000 feet AGL
Clouds: few clouds at 1700 feet AGL
Weather: VCSH  (showers in vicinity)

METAR text: BIRK 151000Z 13004KT 9999 MIFG FEW028 M02/M04 Q0999 R19/920144
Conditions at: BIRK (REYKJAVIK (NOTAM, IS) observed 1000 UTC 15 February 2019
Temperature: -2.0°C (28°F)
Dewpoint: -4.0°C (25°F) [RH = 86%]
Pressure (altimeter): 29.50 inches Hg (999.0 mb)
Winds: from the SE (130 degrees) at 5 MPH (4 knots; 2.1 m/s)
Visibility: 6 or more miles (10+ km)
Ceiling: at least 12,000 feet AGL
Clouds: few clouds at 2800 feet AGL
Weather: MIFG  (shallow fog)

METAR text: BIRK 150900Z 14003KT 9999 -SHSN FEW006 BKN010 OVC032 M02/M03 Q0999 R19/920144
Conditions at: BIRK (REYKJAVIK (NOTAM, IS) observed 0900 UTC 15 February 2019
Temperature: -2.0°C (28°F)
Dewpoint: -3.0°C (27°F) [RH = 93%]
Pressure (altimeter): 29.50 inches Hg (999.0 mb)
Winds: from the SE (140 degrees) at 3 MPH (3 knots; 1.5 m/s)
Visibility: 6 or more miles (10+ km)
Ceiling: 1000 feet AGL
Clouds: few clouds at 600 feet AGL
broken clouds at 1000 feet AGL
overcast cloud deck at 3200 feet AGL
Weather: -SHSN  (light snow showers)

METAR text: BIRK 150800Z 11005KT 9999 FEW049 M03/M05 Q0999 R19/920144
Conditions at: BIRK (REYKJAVIK (NOTAM, IS) observed 0800 UTC 15 February 2019
Temperature: -3.0°C (27°F)
Dewpoint: -5.0°C (23°F) [RH = 86%]
Pressure (altimeter): 29.50 inches Hg (999.0 mb)
Winds: from the ESE (110 degrees) at 6 MPH (5 knots; 2.6 m/s)
Visibility: 6 or more miles (10+ km)
Ceiling: at least 12,000 feet AGL
Clouds: few clouds at 4900 feet AGL
Weather: no significant weather observed at this time

METAR text: BIRK 150700Z 09003KT 9999 FEW026 SCT075 M02/M03 Q0998
Conditions at: BIRK (REYKJAVIK (NOTAM, IS) observed 0700 UTC 15 February 2019
Temperature: -2.0°C (28°F)
Dewpoint: -3.0°C (27°F) [RH = 93%]
Pressure (altimeter): 29.47 inches Hg (998.0 mb)
Winds: from the E (90 degrees) at 3 MPH (3 knots; 1.5 m/s)
Visibility: 6 or more miles (10+ km)
Ceiling: at least 12,000 feet AGL
Clouds: few clouds at 2600 feet AGL
scattered clouds at 7500 feet AGL
Weather: no significant weather observed at this time

METAR text: BIRK 150600Z 13001KT 9999 FEW027 SCT230 M03/M04 Q0999
Conditions at: BIRK (REYKJAVIK (NOTAM, IS) observed 0600 UTC 15 February 2019
Temperature: -3.0°C (27°F)
Dewpoint: -4.0°C (25°F) [RH = 93%]
Pressure (altimeter): 29.50 inches Hg (999.0 mb)
Winds: from the SE (130 degrees) at 1 MPH (1 knots; 0.5 m/s)
Visibility: 6 or more miles (10+ km)
Ceiling: at least 12,000 feet AGL
Clouds: few clouds at 2700 feet AGL
scattered clouds at 23000 feet AGL
Weather: no significant weather observed at this time

METAR text: BIRK 150500Z 06002KT 9999 SCT029 M01/M02 Q0999
Conditions at: BIRK (REYKJAVIK (NOTAM, IS) observed 0500 UTC 15 February 2019
Temperature: -1.0°C (30°F)
Dewpoint: -2.0°C (28°F) [RH = 93%]
Pressure (altimeter): 29.50 inches Hg (999.0 mb)
Winds: from the ENE (60 degrees) at 2 MPH (2 knots; 1.0 m/s)
Visibility: 6 or more miles (10+ km)
Ceiling: at least 12,000 feet AGL
Clouds: scattered clouds at 2900 feet AGL
Weather: no significant weather observed at this time

METAR text: BIRK 150400Z VRB02KT 9999 BKN026 M00/M02 Q0999
Conditions at: BIRK (REYKJAVIK (NOTAM, IS) observed 0400 UTC 15 February 2019
Temperature: 0.0°C (32°F)
Dewpoint: -2.0°C (28°F) [RH = 86%]
Pressure (altimeter): 29.50 inches Hg (999.0 mb)
Winds: variable direction winds at 2 MPH (2 knots; 1.0 m/s)
Visibility: 6 or more miles (10+ km)
Ceiling: 2600 feet AGL
Clouds: broken clouds at 2600 feet AGL
Weather: no significant weather observed at this time

METAR text: BIRK 150300Z 13004KT 9999 SCT021 OVC031 M01/M02 Q1000
Conditions at: BIRK (REYKJAVIK (NOTAM, IS) observed 0300 UTC 15 February 2019
Temperature: -1.0°C (30°F)
Dewpoint: -2.0°C (28°F) [RH = 93%]
Pressure (altimeter): 29.53 inches Hg (1000.0 mb)
Winds: from the SE (130 degrees) at 5 MPH (4 knots; 2.1 m/s)
Visibility: 6 or more miles (10+ km)
Ceiling: 3100 feet AGL
Clouds: scattered clouds at 2100 feet AGL
overcast cloud deck at 3100 feet AGL
Weather: no significant weather observed at this time

METAR text: BIRK 150200Z 12004KT 9999 FEW013 SCT025 BKN032 M01/M02 Q1000
Conditions at: BIRK (REYKJAVIK (NOTAM, IS) observed 0200 UTC 15 February 2019
Temperature: -1.0°C (30°F)
Dewpoint: -2.0°C (28°F) [RH = 93%]
Pressure (altimeter): 29.53 inches Hg (1000.0 mb)
Winds: from the ESE (120 degrees) at 5 MPH (4 knots; 2.1 m/s)
Visibility: 6 or more miles (10+ km)
Ceiling: 3200 feet AGL
Clouds: few clouds at 1300 feet AGL
scattered clouds at 2500 feet AGL
broken clouds at 3200 feet AGL
Weather: no significant weather observed at this time

METAR text: BIRK 150100Z 00000KT 9999 -SHSN FEW008CB SCT015 BKN030 M00/M01 Q1000
Conditions at: BIRK (REYKJAVIK (NOTAM, IS) observed 0100 UTC 15 February 2019
Temperature: 0.0°C (32°F)
Dewpoint: -1.0°C (30°F) [RH = 93%]
Pressure (altimeter): 29.53 inches Hg (1000.0 mb)
Winds: calm
Visibility: 6 or more miles (10+ km)
Ceiling: 3000 feet AGL
Clouds: few clouds at 800 feet AGL
scattered clouds at 1500 feet AGL
broken clouds at 3000 feet AGL
Weather: -SHSN  (light snow showers)

METAR text: BIRK 150000Z 12003KT 9999 FEW017 SCT026 BKN045 01/M01 Q1000
Conditions at: BIRK (REYKJAVIK (NOTAM, IS) observed 0000 UTC 15 February 2019
Temperature: 1.0°C (34°F)
Dewpoint: -1.0°C (30°F) [RH = 86%]
Pressure (altimeter): 29.53 inches Hg (1000.0 mb)
Winds: from the ESE (120 degrees) at 3 MPH (3 knots; 1.5 m/s)
Visibility: 6 or more miles (10+ km)
Ceiling: 4500 feet AGL
Clouds: few clouds at 1700 feet AGL
scattered clouds at 2600 feet AGL
broken clouds at 4500 feet AGL
Weather: no significant weather observed at this time

METAR text: BIRK 142300Z VRB02KT 9999 SCT021 BKN047 00/M02 Q1000 R19/490240
Conditions at: BIRK (REYKJAVIK (NOTAM, IS) observed 2300 UTC 14 February 2019
Temperature: 0.0°C (32°F)
Dewpoint: -2.0°C (28°F) [RH = 86%]
Pressure (altimeter): 29.53 inches Hg (1000.0 mb)
Winds: variable direction winds at 2 MPH (2 knots; 1.0 m/s)
Visibility: 6 or more miles (10+ km)
Ceiling: 4700 feet AGL
Clouds: scattered clouds at 2100 feet AGL
broken clouds at 4700 feet AGL
Weather: no significant weather observed at this time

METAR text: BIRK 142222Z 10006KT 9999 VCSH FEW019CB SCT030 BKN048 01/M01 Q1000
Conditions at: BIRK (REYKJAVIK (NOTAM, IS) observed 2222 UTC 14 February 2019
Temperature: 1.0°C (34°F)
Dewpoint: -1.0°C (30°F) [RH = 86%]
Pressure (altimeter): 29.53 inches Hg (1000.0 mb)
Winds: from the E (100 degrees) at 7 MPH (6 knots; 3.1 m/s)
Visibility: 6 or more miles (10+ km)
Ceiling: 4800 feet AGL
Clouds: few clouds at 1900 feet AGL
scattered clouds at 3000 feet AGL
broken clouds at 4800 feet AGL
Weather: VCSH  (showers in vicinity)

METAR text: BIRK 142200Z 14009KT 5000 -SHSN FEW019CB SCT036 OVC050 01/M01 Q1000 R19/790141
Conditions at: BIRK (REYKJAVIK (NOTAM, IS) observed 2200 UTC 14 February 2019
Temperature: 1.0°C (34°F)
Dewpoint: -1.0°C (30°F) [RH = 86%]
Pressure (altimeter): 29.53 inches Hg (1000.0 mb)
Winds: from the SE (140 degrees) at 10 MPH (9 knots; 4.6 m/s)
Visibility: 3 miles ( 5 km)
Ceiling: 5000 feet AGL
Clouds: few clouds at 1900 feet AGL
scattered clouds at 3600 feet AGL
overcast cloud deck at 5000 feet AGL
Weather: -SHSN  (light snow showers)

METAR text: BIRK 142100Z 11010KT 9999 VCSH FEW022CB SCT059 01/M02 Q1000 R19/790141
Conditions at: BIRK (REYKJAVIK (NOTAM, IS) observed 2100 UTC 14 February 2019
Temperature: 1.0°C (34°F)
Dewpoint: -2.0°C (28°F) [RH = 80%]
Pressure (altimeter): 29.53 inches Hg (1000.0 mb)
Winds: from the ESE (110 degrees) at 12 MPH (10 knots; 5.1 m/s)
Visibility: 6 or more miles (10+ km)
Ceiling: at least 12,000 feet AGL
Clouds: few clouds at 2200 feet AGL
scattered clouds at 5900 feet AGL
Weather: VCSH  (showers in vicinity)

METAR text: BIRK 142000Z 14009KT 9999 VCSH FEW022CB SCT029 BKN050 01/M01 Q1000 R19/790141
Conditions at: BIRK (REYKJAVIK (NOTAM, IS) observed 2000 UTC 14 February 2019
Temperature: 1.0°C (34°F)
Dewpoint: -1.0°C (30°F) [RH = 86%]
Pressure (altimeter): 29.53 inches Hg (1000.0 mb)
Winds: from the SE (140 degrees) at 10 MPH (9 knots; 4.6 m/s)
Visibility: 6 or more miles (10+ km)
Ceiling: 5000 feet AGL
Clouds: few clouds at 2200 feet AGL
scattered clouds at 2900 feet AGL
broken clouds at 5000 feet AGL
Weather: VCSH  (showers in vicinity)

METAR text: BIRK 141900Z 11008KT 9000 -SHSN FEW020CB SCT034 BKN054 01/M01 Q1000 R19/790141
Conditions at: BIRK (REYKJAVIK (NOTAM, IS) observed 1900 UTC 14 February 2019
Temperature: 1.0°C (34°F)
Dewpoint: -1.0°C (30°F) [RH = 86%]
Pressure (altimeter): 29.53 inches Hg (1000.0 mb)
Winds: from the ESE (110 degrees) at 9 MPH (8 knots; 4.1 m/s)
Visibility: 6 miles ( 9 km)
Ceiling: 5400 feet AGL
Clouds: few clouds at 2000 feet AGL
scattered clouds at 3400 feet AGL
broken clouds at 5400 feet AGL
Weather: -SHSN  (light snow showers)

METAR text: BIRK 141800Z 09009KT 9999 VCSH FEW025CB SCT130 00/M01 Q1000 R19/790133
Conditions at: BIRK (REYKJAVIK (NOTAM, IS) observed 1800 UTC 14 February 2019
Temperature: 0.0°C (32°F)
Dewpoint: -1.0°C (30°F) [RH = 93%]
Pressure (altimeter): 29.53 inches Hg (1000.0 mb)
Winds: from the E (90 degrees) at 10 MPH (9 knots; 4.6 m/s)
Visibility: 6 or more miles (10+ km)
Ceiling: at least 12,000 feet AGL
Clouds: few clouds at 2500 feet AGL
scattered clouds at 13000 feet AGL
Weather: VCSH  (showers in vicinity)

METAR text: BIRK 141700Z 11007KT 9999 -SHSN FEW013CB SCT027 BKN036 01/M01 Q1000 R19/950160
Conditions at: BIRK (REYKJAVIK (NOTAM, IS) observed 1700 UTC 14 February 2019
Temperature: 1.0°C (34°F)
Dewpoint: -1.0°C (30°F) [RH = 86%]
Pressure (altimeter): 29.53 inches Hg (1000.0 mb)
Winds: from the ESE (110 degrees) at 8 MPH (7 knots; 3.6 m/s)
Visibility: 6 or more miles (10+ km)
Ceiling: 3600 feet AGL
Clouds: few clouds at 1300 feet AGL
scattered clouds at 2700 feet AGL
broken clouds at 3600 feet AGL
Weather: -SHSN  (light snow showers)

METAR text: BIRK 141610Z 30006KT 2700 -SHSN FEW011CB OVC016 01/M01 Q1000 R19/950160
Conditions at: BIRK (REYKJAVIK (NOTAM, IS) observed 1610 UTC 14 February 2019
Temperature: 1.0°C (34°F)
Dewpoint: -1.0°C (30°F) [RH = 86%]
Pressure (altimeter): 29.53 inches Hg (1000.0 mb)
Winds: from the WNW (300 degrees) at 7 MPH (6 knots; 3.1 m/s)
Visibility: 1.68 miles (2.70 km)
Ceiling: 1600 feet AGL
Clouds: few clouds at 1100 feet AGL
overcast cloud deck at 1600 feet AGL
Weather: -SHSN  (light snow showers)

METAR text: BIRK 141600Z 25009KT 230V300 9999 VCSH FEW006CB SCT025 BKN031 01/M01 Q1000 RESHSN R19/950160
Conditions at: BIRK (REYKJAVIK (NOTAM, IS) observed 1600 UTC 14 February 2019
Temperature: 1.0°C (34°F)
Dewpoint: -1.0°C (30°F) [RH = 86%]
Pressure (altimeter): 29.53 inches Hg (1000.0 mb)
Winds: from the WSW (250 degrees) at 10 MPH (9 knots; 4.6 m/s)
Visibility: 6 or more miles (10+ km)
Ceiling: 3100 feet AGL
Clouds: few clouds at 600 feet AGL
scattered clouds at 2500 feet AGL
broken clouds at 3100 feet AGL
Weather: VCSH  (showers in vicinity)

METAR text: BIRK 141500Z 11007KT 9999 VCSH FEW030CB SCT051 BKN150 02/M02 Q0999 R19/950160
Conditions at: BIRK (REYKJAVIK (NOTAM, IS) observed 1500 UTC 14 February 2019
Temperature: 2.0°C (36°F)
Dewpoint: -2.0°C (28°F) [RH = 75%]
Pressure (altimeter): 29.50 inches Hg (999.0 mb)
Winds: from the ESE (110 degrees) at 8 MPH (7 knots; 3.6 m/s)
Visibility: 6 or more miles (10+ km)
Ceiling: 15000 feet AGL
Clouds: few clouds at 3000 feet AGL
scattered clouds at 5100 feet AGL
broken clouds at 15000 feet AGL
Weather: VCSH  (showers in vicinity)

METAR text: BIRK 141400Z 10006KT 9999 FEW025CB BKN090 01/M02 Q0999 R19/790140
Conditions at: BIRK (REYKJAVIK (NOTAM, IS) observed 1400 UTC 14 February 2019
Temperature: 1.0°C (34°F)
Dewpoint: -2.0°C (28°F) [RH = 80%]
Pressure (altimeter): 29.50 inches Hg (999.0 mb)
Winds: from the E (100 degrees) at 7 MPH (6 knots; 3.1 m/s)
Visibility: 6 or more miles (10+ km)
Ceiling: 9000 feet AGL
Clouds: few clouds at 2500 feet AGL
broken clouds at 9000 feet AGL
Weather: no significant weather observed at this time

METAR text: BIRK 141300Z 12005KT 9999 FEW025CB SCT130 01/M00 Q1000 R19/790140
Conditions at: BIRK (REYKJAVIK (NOTAM, IS) observed 1300 UTC 14 February 2019
Temperature: 1.0°C (34°F)
Dewpoint: 0.0°C (32°F) [RH = 93%]
Pressure (altimeter): 29.53 inches Hg (1000.0 mb)
Winds: from the ESE (120 degrees) at 6 MPH (5 knots; 2.6 m/s)
Visibility: 6 or more miles (10+ km)
Ceiling: at least 12,000 feet AGL
Clouds: few clouds at 2500 feet AGL
scattered clouds at 13000 feet AGL
Weather: no significant weather observed at this time

Forecast for: BIRK (REYKJAVIK (NOTAM, IS)
Text: TAF BIRK 152237Z 1600/1700 09008KT CAVOK TX01/1623Z TNM06/1603Z
Forecast period: 0000 to 0900 UTC 16 February 2019
Forecast type: FROM: standard forecast or significant change
Winds: from the E (90 degrees) at 9 MPH (8 knots; 4.1 m/s)
Visibility: 6 or more miles 10+ km)
Ceiling: unknown
Clouds: missing
Weather: no significant weather forecast for this period
Text: BECMG 1609/1611 9999 FEW025 SCT035
Forecast period: 0900 to 1600 UTC 16 February 2019
Forecast type: BECOMING: Conditions expected to become as follows by 1100 UTC 16 February 2019
Winds: from the E (90 degrees) at 9 MPH (8 knots; 4.1 m/s)
Visibility: 6 or more miles 10+ km)
Ceiling: at least 12,000 feet AGL
Clouds: few clouds at 2500 feet AGL
scattered clouds at 3500 feet AGL
Weather: no significant weather forecast for this period
Text: BECMG 1616/1618 07018KT
Forecast period: 1600 to 2100 UTC 16 February 2019
Forecast type: BECOMING: Conditions expected to become as follows by 1800 UTC 16 February 2019
Winds: from the ENE (70 degrees) at 21 MPH (18 knots; 9.3 m/s)
Visibility: 6 or more miles 10+ km)
Ceiling: at least 12,000 feet AGL
Clouds: few clouds at 2500 feet AGL
scattered clouds at 3500 feet AGL
Weather: no significant weather forecast for this period
Text: BECMG 1621/1700 06022G35KT
Forecast period: 2100 UTC 16 February 2019 to 0000 UTC 17 February 2019
Forecast type: BECOMING: Conditions expected to become as follows by 0000 UTC 17 February 2019
Winds: from the ENE (60 degrees) at 25 MPH (22 knots; 11.3 m/s)
gusting to 40 MPH (35 knots; 18.0 m/s)
Visibility: 6 or more miles 10+ km)
Ceiling: at least 12,000 feet AGL
Clouds: few clouds at 2500 feet AGL
scattered clouds at 3500 feet AGL
Weather: no significant weather forecast for this period